EAT,Max TemperatureF,Mean TemperatureF,Min TemperatureF,Max Dew PointF,MeanDew PointF,Min DewpointF,Max Humidity, Mean Humidity, Min Humidity, Max Sea Level PressureIn, Mean Sea Level PressureIn, Min Sea Level PressureIn, Max VisibilityMiles, Mean VisibilityMiles, Min VisibilityMiles, Max Wind SpeedMPH, Mean Wind SpeedMPH, Max Gust SpeedMPH,PrecipitationIn, CloudCover, Events, WindDirDegrees
2012-10-1,88,76,65,68,61,55,83,60,23,30.09,30.02,29.92,19,10,6,14,3,,0.00,2,,225
2012-10-2,86,76,65,66,62,55,88,60,31,30.12,30.04,29.95,19,8,6,12,4,,0.00,5,,122
2012-10-3,87,75,63,66,61,59,83,59,31,30.09,30.01,29.92,19,8,6,14,5,,0.00,3,Rain,194
2012-10-4,86,76,67,64,61,57,83,61,42,30.04,29.98,29.92,12,7,6,32,5,,0.00,5,Rain,177
2012-10-5,90,80,69,66,62,57,83,62,33,30.04,29.97,29.89,19,8,6,14,5,,0.00,5,Thunderstorm,99
2012-10-6,88,75,62,66,62,61,100,71,45,30.04,29.99,29.92,16,7,6,21,5,,0.08,6,Thunderstorm,177
2012-10-7,88,75,62,65,62,46,94,66,29,30.04,29.98,29.92,19,9,6,14,2,,0.00,3,,258
2012-10-8,87,76,66,66,62,57,94,65,33,30.06,30.01,29.95,19,8,6,14,4,,0.00,3,Thunderstorm,173
2012-10-9,89,75,61,63,59,54,88,56,24,30.04,29.98,29.89,19,8,6,16,4,,0.00,4,Thunderstorm,190
2012-10-10,87,78,68,66,65,63,83,70,51,30.04,29.98,29.95,12,7,6,14,3,,0.00,5,Rain-Thunderstorm,103
2012-10-11,86,77,68,66,63,61,83,67,37,30.04,29.99,29.89,19,7,6,17,4,,0.00,5,Thunderstorm,185
2012-10-12,87,74,62,66,62,59,94,72,40,30.06,30.00,29.89,19,7,6,16,3,,0.00,5,Thunderstorm,89
2012-10-13,83,72,62,65,63,59,94,78,51,30.09,30.05,29.98,19,8,6,9,2,,0.00,4,Thunderstorm,175
2012-10-14,84,74,63,67,64,63,94,77,54,30.09,30.04,29.98,12,7,6,12,3,,0.00,5,Rain,198
2012-10-15,86,76,66,68,64,57,100,71,37,30.06,30.01,29.92,19,11,6,9,1,,0.00,4,Thunderstorm,70
2012-10-16,86,74,63,65,63,57,94,62,39,30.06,30.02,29.95,19,10,6,26,6,,0.00,4,Rain-Thunderstorm,162
2012-10-17,89,76,62,70,62,50,88,68,35,30.04,29.98,29.92,19,8,6,15,4,,0.16,3,Rain-Thunderstorm,188
2012-10-18,86,76,66,68,63,59,88,69,43,30.01,29.94,29.86,16,7,6,16,2,,0.00,4,,163
2012-10-19,90,76,62,64,62,59,88,62,35,30.01,29.93,29.83,19,8,6,18,3,,0.00,4,Thunderstorm,154
2012-10-20,93,78,63,63,59,54,83,56,19,30.01,29.93,29.83,19,9,6,12,3,,0.00,4,Rain-Thunderstorm,125
2012-10-21,88,78,67,63,59,55,78,58,23,30.04,29.95,29.89,19,9,6,21,5,,0.00,5,Rain,71
2012-10-22,89,74,60,65,61,57,100,69,30,30.04,29.97,29.89,19,9,4,21,5,,0.87,5,Rain-Thunderstorm,224
2012-10-23,86,74,62,66,61,55,100,68,28,30.04,29.97,29.83,19,8,6,21,5,,0.31,5,Rain-Thunderstorm,146
2012-10-24,86,75,64,65,62,59,95,67,42,30.04,29.96,29.89,16,8,6,22,5,,0.00,5,Rain-Thunderstorm,85
2012-10-25,89,78,66,66,63,57,100,67,33,30.04,29.96,29.86,19,10,6,20,3,,0.20,5,Rain-Thunderstorm,284
2012-10-26,86,76,66,68,63,57,94,68,29,30.06,30.00,29.89,19,9,6,17,4,,0.00,6,Rain-Thunderstorm,212
2012-10-27,85,76,67,66,64,61,94,73,42,30.04,29.99,29.89,19,8,4,21,8,,1.30,6,Rain-Thunderstorm,118
2012-10-28,82,73,64,66,65,63,94,80,52,30.09,30.03,29.95,19,8,2,25,6,,0.83,5,Rain-Thunderstorm,150
2012-10-29,84,75,66,67,64,61,94,76,42,30.09,30.01,29.92,19,8,6,14,4,,0.00,5,Rain-Thunderstorm,105
2012-10-30,82,74,66,66,65,63,94,73,47,30.04,29.99,29.89,19,9,6,23,6,,0.00,6,,153
2012-10-31,78,72,67,68,65,63,94,78,61,30.04,29.98,29.92,19,8,6,23,6,,0.00,6,Rain-Thunderstorm,192